Time;durP1;ratioP1;P1;durP2;ratioP2;P2;SDS_P1;SDS_P2;PMS_P1;PMS_P2;Temp;Humidity;BMP_temperature;BMP_pressure;BME280_temperature;BME280_humidity;BME280_pressure;Samples;Min_cycle;Max_cycle;Signal;HPM_P1;HPM_P2
2024/03/08 00:01:30;;;;;;;22.70;17.83;;;5.90;99.90;;;;;;5034356;28;20271;-71
2024/03/08 00:03:56;;;;;;;18.47;15.37;;;5.90;99.90;;;;;;5035743;28;20429;-69
2024/03/08 00:06:22;;;;;;;25.30;16.40;;;5.90;99.90;;;;;;5034522;28;20197;-69
2024/03/08 00:08:48;;;;;;;23.60;17.60;;;5.80;99.90;;;;;;5034983;28;20280;-70
2024/03/08 00:11:13;;;;;;;25.00;16.90;;;5.80;99.90;;;;;;5034140;28;20190;-70
2024/03/08 00:13:39;;;;;;;19.77;16.60;;;5.80;99.90;;;;;;5036493;28;20194;-70
2024/03/08 00:16:05;;;;;;;20.00;16.20;;;5.80;99.90;;;;;;5035702;28;20863;-70
2024/03/08 00:18:30;;;;;;;22.00;17.53;;;5.70;99.90;;;;;;5034160;28;20178;-70
2024/03/08 00:20:56;;;;;;;24.47;17.83;;;5.70;99.90;;;;;;5035322;28;20220;-71
2024/03/08 00:23:23;;;;;;;22.83;17.33;;;5.70;99.90;;;;;;5049845;28;20186;-69
2024/03/08 00:25:48;;;;;;;21.17;17.30;;;5.60;99.90;;;;;;5035034;28;20496;-70
2024/03/08 00:28:16;;;;;;;24.50;16.83;;;5.60;99.90;;;;;;5034555;28;20433;-70
2024/03/08 00:30:42;;;;;;;21.17;16.70;;;5.60;99.90;;;;;;5035440;28;20247;-69
2024/03/08 00:33:08;;;;;;;24.20;17.00;;;5.60;99.90;;;;;;5034559;28;21302;-71
2024/03/08 00:35:34;;;;;;;22.73;15.37;;;5.50;99.90;;;;;;5033524;28;20405;-70
2024/03/08 00:37:59;;;;;;;21.70;17.17;;;5.50;99.90;;;;;;5034732;28;20268;-70
2024/03/08 00:40:25;;;;;;;26.00;17.00;;;5.50;99.90;;;;;;5032569;28;20976;-70
2024/03/08 00:42:53;;;;;;;21.27;15.63;;;5.60;99.90;;;;;;5034783;28;20612;-71
2024/03/08 00:45:18;;;;;;;23.53;16.93;;;5.60;99.90;;;;;;5031762;28;20236;-71
2024/03/08 00:47:44;;;;;;;21.43;16.90;;;5.60;99.90;;;;;;5034430;28;20472;-70
2024/03/08 00:50:10;;;;;;;24.60;17.97;;;5.60;99.90;;;;;;5034131;28;20644;-70
2024/03/08 00:52:37;;;;;;;22.63;17.40;;;5.60;99.90;;;;;;5034248;28;20190;-69
2024/03/08 00:55:03;;;;;;;22.30;17.17;;;5.60;99.90;;;;;;5034501;28;20450;-70
2024/03/08 00:57:29;;;;;;;22.40;17.10;;;5.60;99.90;;;;;;5033268;28;20433;-70
2024/03/08 00:59:56;;;;;;;19.87;16.10;;;5.60;99.90;;;;;;5032423;28;20532;-71
2024/03/08 01:02:23;;;;;;;20.60;17.17;;;5.50;99.90;;;;;;5032892;28;20781;-71
2024/03/08 01:04:49;;;;;;;23.23;17.27;;;5.60;99.90;;;;;;5034227;28;20441;-70
2024/03/08 01:07:15;;;;;;;22.53;18.00;;;5.60;99.90;;;;;;5032227;28;20436;-70
2024/03/08 01:09:40;;;;;;;22.07;17.67;;;5.50;99.90;;;;;;5032343;28;20428;-70
2024/03/08 01:12:07;;;;;;;24.87;18.70;;;5.50;99.90;;;;;;5034486;28;20433;-69
2024/03/08 01:14:33;;;;;;;21.37;17.47;;;5.50;99.90;;;;;;5034422;28;20248;-71
2024/03/08 01:16:59;;;;;;;20.67;17.00;;;5.50;99.90;;;;;;5033707;28;20433;-69
2024/03/08 01:19:25;;;;;;;22.67;17.70;;;5.50;99.90;;;;;;5032722;28;20426;-70
2024/03/08 01:21:51;;;;;;;21.33;16.43;;;5.50;99.90;;;;;;5034110;28;21141;-69
2024/03/08 01:24:17;;;;;;;23.20;17.80;;;5.40;99.90;;;;;;5033580;28;20460;-70
2024/03/08 01:26:42;;;;;;;22.80;16.90;;;5.50;99.90;;;;;;5034475;28;20455;-69
2024/03/08 01:29:08;;;;;;;21.37;18.07;;;5.40;99.90;;;;;;5033129;28;20653;-69
2024/03/08 01:31:34;;;;;;;21.87;17.20;;;5.40;99.90;;;;;;5034019;28;22823;-71
2024/03/08 01:33:59;;;;;;;25.40;17.80;;;5.30;99.90;;;;;;5032304;28;20174;-69
2024/03/08 01:36:25;;;;;;;22.40;16.83;;;5.30;99.90;;;;;;5033556;28;20661;-69
2024/03/08 01:38:52;;;;;;;20.93;16.47;;;5.30;99.90;;;;;;5033828;28;20726;-69
2024/03/08 01:41:18;;;;;;;24.50;16.93;;;5.30;99.90;;;;;;5033586;28;20508;-69
2024/03/08 01:43:45;;;;;;;24.03;17.43;;;5.20;99.90;;;;;;5034583;28;20849;-69
2024/03/08 01:46:15;;;;;;;24.03;18.10;;;5.10;99.90;;;;;;5033384;28;20515;-70
2024/03/08 01:48:41;;;;;;;26.27;17.70;;;5.10;99.90;;;;;;5033763;28;20479;-70
2024/03/08 01:51:07;;;;;;;26.30;19.90;;;5.10;99.90;;;;;;5033632;28;20434;-70
2024/03/08 01:53:34;;;;;;;24.23;18.13;;;5.10;99.90;;;;;;5034271;28;20428;-71
2024/03/08 01:56:02;;;;;;;28.30;18.43;;;5.10;99.90;;;;;;5032859;28;20470;-69
2024/03/08 01:58:29;;;;;;;25.93;18.80;;;5.10;99.90;;;;;;5033264;28;21151;-71
2024/03/08 02:00:57;;;;;;;25.10;18.47;;;5.10;99.90;;;;;;5032674;28;21006;-71
2024/03/08 02:03:22;;;;;;;25.40;19.40;;;5.10;99.90;;;;;;5032754;28;20441;-69
2024/03/08 02:05:49;;;;;;;25.27;18.73;;;5.00;99.90;;;;;;5034254;28;20926;-68
2024/03/08 02:08:16;;;;;;;25.67;18.60;;;5.00;99.90;;;;;;5032038;28;20196;-69
2024/03/08 02:10:43;;;;;;;23.20;17.67;;;5.00;99.90;;;;;;5034925;28;21087;-69
2024/03/08 02:13:10;;;;;;;24.00;17.57;;;5.00;99.90;;;;;;5033793;28;20417;-70
2024/03/08 02:15:52;;;;;;;26.37;18.90;;;5.00;99.90;;;;;;5034211;28;20482;-70
2024/03/08 02:18:18;;;;;;;23.57;17.83;;;5.00;99.90;;;;;;5033370;28;20491;-70
2024/03/08 02:20:55;;;;;;;23.70;17.50;;;4.90;99.90;;;;;;5035036;28;20484;-69
2024/03/08 02:23:21;;;;;;;23.13;18.57;;;4.90;99.90;;;;;;5037623;28;20446;-68
2024/03/08 02:25:48;;;;;;;22.90;17.53;;;4.90;99.90;;;;;;5038889;28;21048;-69
2024/03/08 02:28:14;;;;;;;22.13;17.53;;;4.90;99.90;;;;;;5037464;28;20425;-70
2024/03/08 02:30:40;;;;;;;25.80;18.57;;;4.90;99.90;;;;;;5038860;28;20424;-71
2024/03/08 02:33:06;;;;;;;24.40;18.73;;;4.90;99.90;;;;;;5052327;28;20976;-69
2024/03/08 02:35:33;;;;;;;23.77;18.00;;;4.90;99.90;;;;;;5038452;28;20460;-71
2024/03/08 02:37:59;;;;;;;22.60;17.50;;;4.90;99.90;;;;;;5037557;28;20432;-70
2024/03/08 02:40:25;;;;;;;26.20;19.57;;;4.90;99.90;;;;;;5036750;28;20468;-70
2024/03/08 02:42:51;;;;;;;27.83;19.33;;;4.90;99.90;;;;;;5038527;28;20977;-70
2024/03/08 02:45:17;;;;;;;23.87;18.57;;;4.90;99.90;;;;;;5037913;28;20461;-70
2024/03/08 02:47:42;;;;;;;23.40;17.67;;;4.80;99.90;;;;;;5037906;28;20286;-70
2024/03/08 02:50:08;;;;;;;26.13;18.77;;;4.80;99.90;;;;;;5037227;28;20187;-69
2024/03/08 02:52:35;;;;;;;24.50;18.70;;;4.70;99.90;;;;;;5038508;28;20650;-70
2024/03/08 02:55:01;;;;;;;21.53;16.77;;;4.70;99.90;;;;;;5036774;28;20424;-71
2024/03/08 02:57:27;;;;;;;22.90;17.80;;;4.80;99.90;;;;;;5037305;28;20549;-71
2024/03/08 02:59:55;;;;;;;24.70;18.30;;;4.70;99.90;;;;;;5038135;28;20470;-69
2024/03/08 03:02:23;;;;;;;23.80;17.47;;;4.70;99.90;;;;;;5035721;28;20239;-69
2024/03/08 03:04:48;;;;;;;26.90;17.50;;;4.70;99.90;;;;;;5038255;28;20494;-70
2024/03/08 03:07:14;;;;;;;23.70;18.73;;;4.80;99.90;;;;;;5037039;28;20902;-70
2024/03/08 03:09:40;;;;;;;23.47;17.20;;;4.60;99.90;;;;;;5038211;28;20175;-69
2024/03/08 03:12:08;;;;;;;23.90;18.10;;;4.60;99.90;;;;;;5035916;28;20533;-70
2024/03/08 03:14:40;;;;;;;26.00;18.80;;;4.70;99.90;;;;;;5037990;28;20480;-70
2024/03/08 03:17:06;;;;;;;28.00;19.30;;;4.60;99.90;;;;;;5035523;28;20870;-69
2024/03/08 03:19:31;;;;;;;25.60;18.60;;;4.70;99.90;;;;;;5037316;28;20521;-70
2024/03/08 03:21:57;;;;;;;24.97;17.50;;;4.60;99.90;;;;;;5036984;28;20837;-69
2024/03/08 03:24:23;;;;;;;20.13;16.30;;;4.60;99.90;;;;;;5037145;28;20261;-69
2024/03/08 03:26:49;;;;;;;25.87;17.77;;;4.60;99.90;;;;;;5036045;28;20280;-70
2024/03/08 03:29:16;;;;;;;22.40;17.60;;;4.70;99.90;;;;;;5036851;28;20429;-69
2024/03/08 03:31:45;;;;;;;27.63;18.90;;;4.70;99.90;;;;;;5033823;28;20445;-69
2024/03/08 03:34:11;;;;;;;26.17;17.10;;;4.60;99.90;;;;;;5035641;28;20433;-69
2024/03/08 03:36:42;;;;;;;25.80;18.20;;;4.60;99.90;;;;;;5037165;28;20903;-70
2024/03/08 03:39:15;;;;;;;26.53;18.83;;;4.60;99.90;;;;;;5035787;28;20486;-71
2024/03/08 03:41:46;;;;;;;24.23;17.40;;;4.70;99.90;;;;;;5035908;28;20465;-70
2024/03/08 03:44:12;;;;;;;23.57;17.70;;;4.60;99.90;;;;;;5035572;28;20439;-70
2024/03/08 03:46:43;;;;;;;24.23;18.10;;;4.60;99.90;;;;;;5037047;28;20462;-69
2024/03/08 03:49:09;;;;;;;22.23;16.67;;;4.70;99.90;;;;;;5050940;28;20460;-70
2024/03/08 03:51:35;;;;;;;30.03;17.63;;;4.60;99.90;;;;;;5036919;28;20548;-70
2024/03/08 03:54:03;;;;;;;27.30;19.10;;;4.50;99.90;;;;;;5036237;28;20182;-70
2024/03/08 03:56:30;;;;;;;25.80;18.30;;;4.50;99.90;;;;;;5051541;28;20190;-70
2024/03/08 03:58:56;;;;;;;25.93;18.10;;;4.50;99.90;;;;;;5035694;28;21096;-69
2024/03/08 04:01:22;;;;;;;26.40;18.27;;;4.40;99.90;;;;;;5035862;28;20468;-69
2024/03/08 04:03:47;;;;;;;24.57;18.20;;;4.40;99.90;;;;;;5036617;28;20431;-71
2024/03/08 04:06:14;;;;;;;28.00;19.40;;;4.40;99.90;;;;;;5035730;28;20213;-70
2024/03/08 04:08:40;;;;;;;26.60;16.63;;;4.40;99.90;;;;;;5034930;28;20194;-71
2024/03/08 04:11:06;;;;;;;25.30;18.10;;;4.40;99.90;;;;;;5034651;28;20433;-70
2024/03/08 04:13:32;;;;;;;26.37;18.03;;;4.30;99.90;;;;;;5036178;28;20418;-70
2024/03/08 04:15:58;;;;;;;26.23;18.67;;;4.40;99.90;;;;;;5035499;28;20429;-71
2024/03/08 04:18:24;;;;;;;25.13;17.57;;;4.40;99.90;;;;;;5034714;28;20475;-70
2024/03/08 04:20:50;;;;;;;26.60;18.37;;;4.30;99.90;;;;;;5035859;28;20810;-69
2024/03/08 04:23:16;;;;;;;29.10;18.10;;;4.30;99.90;;;;;;5036192;28;20425;-71
2024/03/08 04:25:42;;;;;;;25.60;18.33;;;4.30;99.90;;;;;;5035185;28;20182;-70
2024/03/08 04:28:11;;;;;;;26.80;17.80;;;4.20;99.90;;;;;;5035210;28;20436;-70
2024/03/08 04:30:37;;;;;;;25.57;18.23;;;4.20;99.90;;;;;;5035550;28;20192;-70
2024/03/08 04:33:03;;;;;;;29.27;19.23;;;4.20;99.90;;;;;;5034836;28;20439;-70
2024/03/08 04:35:30;;;;;;;23.17;17.47;;;4.20;99.90;;;;;;5035264;28;20429;-71
2024/03/08 04:37:57;;;;;;;26.07;18.90;;;4.20;99.90;;;;;;5035049;28;20462;-70
2024/03/08 04:40:23;;;;;;;22.40;17.23;;;4.20;99.90;;;;;;5035075;28;20456;-70
2024/03/08 04:42:50;;;;;;;26.60;18.60;;;4.20;99.90;;;;;;5035278;28;20439;-69
2024/03/08 04:45:17;;;;;;;28.10;19.17;;;4.20;99.90;;;;;;5034839;28;21536;-71
2024/03/08 04:47:42;;;;;;;26.80;17.80;;;4.20;99.90;;;;;;5034264;28;20469;-69
2024/03/08 04:50:09;;;;;;;30.20;19.07;;;4.20;99.90;;;;;;5034592;28;20471;-70
2024/03/08 04:52:35;;;;;;;31.13;18.03;;;4.20;99.90;;;;;;5035408;28;20429;-70
2024/03/08 04:55:04;;;;;;;25.63;18.57;;;4.20;99.90;;;;;;5034484;28;20433;-71
2024/03/08 04:57:30;;;;;;;25.93;18.60;;;4.20;99.90;;;;;;5034865;28;20442;-71
2024/03/08 04:59:55;;;;;;;30.20;18.70;;;4.20;99.90;;;;;;5034826;28;20474;-70
2024/03/08 05:02:22;;;;;;;26.33;18.80;;;4.20;99.90;;;;;;5035029;28;20712;-70
2024/03/08 05:04:48;;;;;;;27.83;19.33;;;4.20;99.90;;;;;;5034728;28;20247;-70
2024/03/08 05:07:14;;;;;;;24.87;18.47;;;4.10;99.90;;;;;;5034356;28;20432;-69
2024/03/08 05:09:40;;;;;;;27.30;19.63;;;4.10;99.90;;;;;;5034991;28;20192;-70
2024/03/08 05:12:07;;;;;;;26.63;19.77;;;4.10;99.90;;;;;;5034376;28;20200;-70
2024/03/08 05:14:34;;;;;;;27.90;18.57;;;4.10;99.90;;;;;;5034597;28;20436;-71
2024/03/08 05:17:00;;;;;;;27.87;19.57;;;4.10;99.90;;;;;;5033930;28;20437;-71
2024/03/08 05:19:26;;;;;;;28.70;19.87;;;4.10;99.90;;;;;;5034092;28;20424;-69
2024/03/08 05:21:52;;;;;;;30.23;19.40;;;4.10;99.90;;;;;;5033546;28;21068;-70
2024/03/08 05:24:18;;;;;;;31.20;21.13;;;4.10;99.90;;;;;;5034332;28;20198;-70
2024/03/08 05:26:44;;;;;;;29.73;20.90;;;4.10;99.90;;;;;;5034918;28;20436;-69
2024/03/08 05:29:10;;;;;;;29.00;19.30;;;4.10;99.90;;;;;;5033835;28;20185;-70
2024/03/08 05:31:49;;;;;;;29.90;20.00;;;4.10;99.90;;;;;;5034586;28;20449;-71
2024/03/08 05:34:16;;;;;;;27.17;20.27;;;4.10;99.90;;;;;;5033608;28;20460;-70
2024/03/08 05:36:46;;;;;;;24.37;18.27;;;4.00;99.90;;;;;;5034729;28;20476;-70
2024/03/08 05:39:12;;;;;;;28.80;19.90;;;4.00;99.90;;;;;;5033787;28;20516;-71
2024/03/08 05:41:39;;;;;;;25.53;19.30;;;4.00;99.90;;;;;;5034165;28;20503;-71
2024/03/08 05:44:05;;;;;;;28.53;20.30;;;4.00;99.90;;;;;;5033800;28;20420;-69
2024/03/08 05:46:31;;;;;;;26.43;18.80;;;3.90;99.90;;;;;;5033787;28;20433;-71
2024/03/08 05:48:58;;;;;;;26.87;20.27;;;4.00;99.90;;;;;;5032428;28;20884;-70
2024/03/08 05:51:26;;;;;;;30.73;19.50;;;3.90;99.90;;;;;;5029915;28;20699;-72
2024/03/08 05:53:53;;;;;;;25.70;18.30;;;3.90;99.90;;;;;;5030448;28;20433;-71
2024/03/08 05:56:19;;;;;;;27.80;19.80;;;3.90;99.90;;;;;;5029365;28;20459;-71
2024/03/08 05:58:45;;;;;;;28.07;19.70;;;4.00;99.90;;;;;;5032265;28;20429;-70
2024/03/08 06:01:12;;;;;;;29.23;20.13;;;4.00;99.90;;;;;;5027767;28;20551;-71
2024/03/08 06:03:44;;;;;;;27.27;19.97;;;4.00;99.90;;;;;;5032939;28;20443;-70
2024/03/08 06:06:13;;;;;;;26.40;19.87;;;4.00;99.90;;;;;;5033327;28;20476;-69
2024/03/08 06:08:40;;;;;;;28.23;20.13;;;4.00;99.90;;;;;;5033481;28;20439;-70
2024/03/08 06:11:06;;;;;;;31.03;20.77;;;4.00;99.90;;;;;;5033200;28;20424;-70
2024/03/08 06:13:33;;;;;;;27.40;19.70;;;4.00;99.90;;;;;;5033373;28;20923;-70
2024/03/08 06:16:00;;;;;;;29.27;19.80;;;4.00;99.90;;;;;;5032624;28;20805;-70
2024/03/08 06:18:26;;;;;;;28.87;20.67;;;4.00;99.90;;;;;;5031931;28;20424;-70
2024/03/08 06:20:52;;;;;;;34.03;20.73;;;4.00;99.90;;;;;;5032420;28;20892;-70
2024/03/08 06:23:18;;;;;;;28.40;20.30;;;3.90;99.90;;;;;;5032836;28;20421;-70
2024/03/08 06:25:47;;;;;;;28.13;19.13;;;4.00;99.90;;;;;;5033738;28;20186;-71
2024/03/08 06:28:14;;;;;;;33.27;19.70;;;4.00;99.90;;;;;;5032579;28;20428;-71
2024/03/08 06:30:40;;;;;;;28.50;19.53;;;3.90;99.90;;;;;;5032094;28;20432;-70
2024/03/08 06:33:07;;;;;;;29.10;20.70;;;3.90;99.90;;;;;;5033037;28;20567;-71
2024/03/08 06:35:32;;;;;;;30.73;20.63;;;3.90;99.90;;;;;;5031621;28;20452;-71
2024/03/08 06:38:01;;;;;;;31.30;21.30;;;3.90;99.90;;;;;;5032092;28;20456;-70
2024/03/08 06:40:26;;;;;;;31.87;21.50;;;4.00;99.90;;;;;;5031977;28;20193;-71
2024/03/08 06:42:52;;;;;;;28.80;19.47;;;3.90;99.90;;;;;;5031852;28;20432;-70
2024/03/08 06:45:20;;;;;;;30.27;21.27;;;4.00;99.90;;;;;;5032051;28;20277;-69
2024/03/08 06:47:47;;;;;;;29.43;19.97;;;4.00;99.90;;;;;;5032681;28;20756;-70
2024/03/08 06:50:13;;;;;;;30.50;20.53;;;4.00;99.90;;;;;;5030731;28;20460;-70
2024/03/08 06:52:40;;;;;;;30.10;20.43;;;4.10;99.90;;;;;;5032404;28;20452;-70
2024/03/08 06:55:06;;;;;;;31.23;20.57;;;4.10;99.90;;;;;;5032625;28;20834;-70
2024/03/08 06:57:32;;;;;;;32.20;22.20;;;4.10;99.90;;;;;;5031291;28;20432;-69
2024/03/08 06:59:57;;;;;;;34.20;21.40;;;4.10;99.90;;;;;;5033021;28;20781;-70
2024/03/08 07:02:27;;;;;;;30.23;19.97;;;4.10;99.90;;;;;;5030025;28;20229;-69
2024/03/08 07:04:53;;;;;;;26.87;20.13;;;4.20;99.90;;;;;;5025423;28;20185;-70
2024/03/08 07:07:20;;;;;;;32.07;20.57;;;4.20;99.90;;;;;;5037535;28;20440;-71
2024/03/08 07:09:46;;;;;;;29.87;20.67;;;4.30;99.90;;;;;;5031425;28;20183;-70
2024/03/08 07:12:13;;;;;;;30.60;22.33;;;4.20;99.90;;;;;;5035128;28;20769;-70
2024/03/08 07:14:40;;;;;;;33.20;20.60;;;4.20;99.90;;;;;;5030342;28;20518;-71
2024/03/08 07:17:08;;;;;;;30.33;20.87;;;4.20;99.90;;;;;;5032974;28;20433;-71
2024/03/08 07:19:34;;;;;;;30.60;22.07;;;4.30;99.90;;;;;;5030207;28;20443;-70
2024/03/08 07:22:03;;;;;;;29.03;20.70;;;4.40;99.90;;;;;;5032721;28;20465;-71
2024/03/08 07:27:05;;;;;;;30.30;21.33;;;4.50;99.90;;;;;;5027689;28;20559;-68
2024/03/08 07:29:36;;;;;;;31.87;20.03;;;4.50;99.90;;;;;;5034437;28;20521;-68
2024/03/08 07:32:19;;;;;;;30.43;20.57;;;4.50;99.90;;;;;;5034097;28;20483;-67
2024/03/08 07:34:44;;;;;;;30.43;21.77;;;4.50;99.90;;;;;;5035551;28;21060;-68
2024/03/08 07:37:13;;;;;;;30.73;20.90;;;4.70;99.90;;;;;;5036010;28;20433;-67
2024/03/08 07:39:39;;;;;;;31.57;20.10;;;4.80;99.90;;;;;;5035484;28;20201;-68
2024/03/08 07:42:05;;;;;;;27.37;20.30;;;4.90;99.90;;;;;;5035750;28;20547;-68
2024/03/08 07:44:32;;;;;;;30.13;20.60;;;5.10;99.90;;;;;;5035851;28;20214;-67
2024/03/08 07:46:58;;;;;;;27.97;19.60;;;5.20;99.90;;;;;;5035793;28;20448;-67
2024/03/08 07:49:24;;;;;;;31.20;21.07;;;5.30;99.90;;;;;;5035147;28;20436;-67
2024/03/08 07:51:51;;;;;;;30.03;20.73;;;5.50;99.90;;;;;;5035237;28;20424;-68
2024/03/08 07:54:17;;;;;;;27.40;21.10;;;5.70;99.90;;;;;;5035394;28;20424;-67
2024/03/08 07:56:43;;;;;;;30.97;20.43;;;5.80;99.90;;;;;;5035109;28;20965;-67
2024/03/08 07:59:08;;;;;;;26.97;19.90;;;6.10;99.90;;;;;;5035198;28;20429;-67
2024/03/08 08:01:34;;;;;;;25.87;19.17;;;6.30;99.90;;;;;;5035181;28;20222;-68
2024/03/08 08:04:03;;;;;;;34.83;22.00;;;6.50;99.90;;;;;;5035448;28;20522;-68
2024/03/08 08:06:31;;;;;;;29.43;20.33;;;6.60;99.90;;;;;;5035520;28;20186;-67
2024/03/08 08:08:57;;;;;;;26.73;20.17;;;6.80;99.90;;;;;;5033986;28;20433;-68
2024/03/08 08:11:25;;;;;;;27.17;20.20;;;6.90;99.90;;;;;;5033958;28;21023;-67
2024/03/08 08:13:51;;;;;;;29.90;19.93;;;7.10;99.90;;;;;;5033189;28;20432;-67
2024/03/08 08:16:16;;;;;;;28.97;20.90;;;7.20;99.90;;;;;;5034086;28;21011;-68
2024/03/08 08:18:42;;;;;;;26.00;19.07;;;7.30;99.90;;;;;;5034654;28;20220;-68
2024/03/08 08:21:08;;;;;;;27.33;19.70;;;7.40;99.90;;;;;;5035882;28;20213;-67
2024/03/08 08:23:34;;;;;;;28.00;20.00;;;7.50;99.90;;;;;;5034497;28;20178;-68
2024/03/08 08:26:01;;;;;;;28.50;19.80;;;7.60;99.90;;;;;;5033574;28;20185;-68
2024/03/08 08:28:27;;;;;;;25.33;17.93;;;7.70;99.90;;;;;;5034591;28;20943;-68
2024/03/08 08:30:52;;;;;;;28.27;19.47;;;7.80;99.90;;;;;;5034081;28;20428;-68
2024/03/08 08:33:19;;;;;;;32.00;20.90;;;8.00;99.90;;;;;;5033124;28;20178;-67
2024/03/08 08:35:45;;;;;;;27.80;19.67;;;8.10;99.90;;;;;;5033600;28;20186;-68
2024/03/08 08:38:11;;;;;;;25.87;18.10;;;8.20;99.90;;;;;;5034670;28;20841;-67
2024/03/08 08:40:37;;;;;;;24.33;18.47;;;8.20;99.90;;;;;;5033880;28;20214;-68
2024/03/08 08:43:06;;;;;;;25.67;18.83;;;8.30;99.90;;;;;;5034406;28;20422;-67
2024/03/08 08:45:33;;;;;;;26.80;19.07;;;8.40;99.90;;;;;;5033716;28;20228;-68
2024/03/08 08:48:01;;;;;;;23.00;17.73;;;8.50;99.90;;;;;;5034469;28;20810;-68
2024/03/08 08:50:28;;;;;;;28.60;19.20;;;8.60;99.90;;;;;;5034031;28;20440;-68
2024/03/08 08:52:54;;;;;;;23.00;17.83;;;8.70;99.90;;;;;;5034089;28;20775;-68
2024/03/08 08:55:21;;;;;;;24.73;19.00;;;8.80;99.90;;;;;;5033386;28;20461;-68
2024/03/08 08:57:51;;;;;;;26.90;18.80;;;8.70;99.90;;;;;;5033860;28;20491;-68
2024/03/08 09:00:22;;;;;;;26.17;19.63;;;8.80;99.90;;;;;;5033576;28;20424;-68
2024/03/08 09:02:48;;;;;;;25.60;18.27;;;8.90;99.90;;;;;;5034040;28;20935;-68
2024/03/08 09:05:16;;;;;;;28.33;21.33;;;8.90;99.90;;;;;;5034912;28;20433;-67
2024/03/08 09:07:44;;;;;;;26.53;19.50;;;9.00;99.90;;;;;;5049195;28;20425;-68
2024/03/08 09:10:12;;;;;;;26.83;20.73;;;9.20;99.90;;;;;;5035036;28;20845;-68
2024/03/08 09:12:39;;;;;;;24.90;19.70;;;9.20;99.90;;;;;;5034608;28;20767;-67
2024/03/08 09:15:08;;;;;;;28.23;19.50;;;9.30;99.90;;;;;;5034123;28;20437;-68
2024/03/08 09:17:34;;;;;;;26.13;18.80;;;9.30;99.90;;;;;;5033824;28;20462;-68
2024/03/08 09:20:00;;;;;;;26.03;19.57;;;9.40;99.90;;;;;;5033028;28;20421;-68
2024/03/08 09:22:26;;;;;;;23.77;18.20;;;9.40;99.90;;;;;;5032800;28;20577;-68
2024/03/08 09:24:51;;;;;;;24.60;18.73;;;9.30;99.90;;;;;;5066560;28;20464;-68
2024/03/08 09:27:18;;;;;;;27.63;18.47;;;9.30;99.90;;;;;;5035523;28;20271;-69
2024/03/08 09:29:44;;;;;;;23.47;18.43;;;9.30;99.90;;;;;;5033068;28;20186;-68
2024/03/08 09:32:11;;;;;;;26.57;17.70;;;9.40;99.90;;;;;;5033553;28;20436;-68
2024/03/08 09:34:37;;;;;;;27.37;19.00;;;9.50;99.90;;;;;;5033644;28;20470;-68
2024/03/08 09:37:04;;;;;;;25.07;19.30;;;9.60;99.90;;;;;;5034043;28;20475;-68
2024/03/08 09:39:30;;;;;;;24.70;18.37;;;9.60;99.90;;;;;;5033591;28;20436;-68
2024/03/08 09:41:56;;;;;;;25.70;20.00;;;9.70;99.90;;;;;;5033674;28;20467;-68
2024/03/08 09:44:23;;;;;;;24.10;18.63;;;9.80;99.90;;;;;;5034091;28;20444;-66
2024/03/08 09:46:52;;;;;;;26.63;20.13;;;10.00;99.90;;;;;;5033392;28;20826;-67
2024/03/08 09:49:18;;;;;;;28.73;20.63;;;10.10;99.90;;;;;;5033671;28;21006;-67
2024/03/08 09:51:44;;;;;;;28.30;20.70;;;10.30;99.90;;;;;;5033263;28;20441;-66
2024/03/08 09:54:11;;;;;;;27.13;20.90;;;10.40;99.90;;;;;;5033920;28;20178;-67
2024/03/08 09:56:38;;;;;;;25.17;19.67;;;10.50;99.90;;;;;;5032881;28;20442;-67
2024/03/08 10:01:35;;;;;;;22.67;19.20;;;10.80;99.70;;;;;;5032831;28;20466;-68
2024/03/08 10:04:02;;;;;;;25.67;20.47;;;10.90;99.90;;;;;;5033962;28;20927;-67
2024/03/08 10:06:28;;;;;;;25.13;19.00;;;11.00;99.60;;;;;;5016380;28;20958;-68
2024/03/08 10:08:54;;;;;;;26.60;19.80;;;11.10;99.00;;;;;;5033420;28;20419;-67
2024/03/08 10:11:19;;;;;;;24.03;18.47;;;11.20;98.70;;;;;;5014577;28;20567;-67
2024/03/08 10:13:48;;;;;;;25.90;19.03;;;11.30;98.90;;;;;;5031492;28;20421;-68
2024/03/08 10:16:14;;;;;;;26.67;19.00;;;11.40;98.70;;;;;;5032448;28;20182;-67
2024/03/08 10:18:40;;;;;;;23.70;19.37;;;11.40;97.20;;;;;;5031960;28;20518;-67
2024/03/08 10:21:10;;;;;;;25.57;20.53;;;11.40;98.00;;;;;;5031405;28;20479;-67
2024/03/08 10:23:36;;;;;;;23.83;19.60;;;11.60;98.90;;;;;;5030677;28;20416;-67
2024/03/08 10:26:14;;;;;;;25.97;20.50;;;11.60;97.90;;;;;;5032880;28;20464;-67
2024/03/08 10:28:47;;;;;;;24.53;20.07;;;11.70;98.70;;;;;;5033422;28;21232;-68
2024/03/08 10:31:15;;;;;;;24.93;20.30;;;11.80;97.60;;;;;;5033694;28;20429;-67
2024/03/08 10:33:41;;;;;;;24.20;20.33;;;11.90;98.00;;;;;;5032479;28;20439;-67
2024/03/08 10:36:10;;;;;;;25.27;20.57;;;11.90;98.00;;;;;;5033610;28;20432;-67
2024/03/08 10:38:41;;;;;;;23.97;20.43;;;12.00;97.50;;;;;;5064193;28;20433;-68
2024/03/08 10:41:14;;;;;;;27.70;21.57;;;12.00;97.20;;;;;;5034135;28;20549;-67
2024/03/08 10:43:58;;;;;;;23.50;19.70;;;12.10;97.50;;;;;;5036904;28;20458;-67
2024/03/08 10:46:45;;;;;;;28.20;20.83;;;12.20;98.00;;;;;;5037241;28;20478;-68
2024/03/08 10:49:20;;;;;;;26.50;21.23;;;12.20;97.80;;;;;;5036912;28;20436;-68
2024/03/08 10:51:48;;;;;;;23.27;20.17;;;12.30;97.10;;;;;;5035875;28;21272;-67
2024/03/08 10:54:15;;;;;;;26.20;21.13;;;12.30;96.90;;;;;;5037427;28;20424;-68
2024/03/08 10:56:41;;;;;;;27.90;21.50;;;12.40;97.60;;;;;;5036154;28;20456;-67
2024/03/08 10:59:10;;;;;;;29.63;21.50;;;12.40;97.00;;;;;;5037181;28;20790;-67
2024/03/08 11:01:36;;;;;;;31.70;21.90;;;12.50;97.90;;;;;;5036057;28;20241;-67
2024/03/08 11:04:04;;;;;;;25.83;21.30;;;12.50;96.80;;;;;;5037221;28;20476;-67
2024/03/08 11:06:36;;;;;;;27.67;21.47;;;12.50;97.10;;;;;;5036369;28;20762;-67
2024/03/08 11:09:03;;;;;;;25.60;21.90;;;12.60;97.10;;;;;;5036309;28;21153;-67
2024/03/08 11:11:34;;;;;;;28.00;21.83;;;12.60;96.40;;;;;;5036118;28;20527;-68
2024/03/08 11:14:01;;;;;;;27.77;23.30;;;12.70;96.50;;;;;;5037061;28;20436;-67
2024/03/08 11:16:33;;;;;;;24.93;21.13;;;12.80;96.50;;;;;;5018879;28;20499;-67
2024/03/08 11:19:04;;;;;;;26.30;21.80;;;12.80;96.10;;;;;;5036724;28;20965;-67
2024/03/08 11:21:31;;;;;;;23.93;20.83;;;12.80;97.00;;;;;;5034519;28;20467;-67
2024/03/08 11:24:01;;;;;;;25.40;21.57;;;12.90;97.10;;;;;;5036236;28;20420;-67
2024/03/08 11:26:27;;;;;;;28.03;21.87;;;12.90;96.60;;;;;;5033597;28;20424;-67
2024/03/08 11:28:55;;;;;;;33.20;22.70;;;12.90;95.90;;;;;;5036991;28;20550;-68
2024/03/08 11:31:25;;;;;;;25.40;20.53;;;13.00;96.10;;;;;;5036598;28;20424;-67
2024/03/08 11:33:53;;;;;;;25.00;20.43;;;13.00;95.80;;;;;;5037057;28;20571;-67
2024/03/08 11:36:25;;;;;;;25.53;20.80;;;13.00;96.00;;;;;;5036524;28;20436;-68
2024/03/08 11:38:52;;;;;;;23.70;20.03;;;13.00;95.90;;;;;;5036858;28;20467;-67
2024/03/08 11:41:23;;;;;;;24.97;20.33;;;12.90;95.40;;;;;;5036142;28;20468;-68
2024/03/08 11:44:00;;;;;;;25.77;21.43;;;12.90;95.60;;;;;;5036107;28;20428;-67
2024/03/08 11:46:28;;;;;;;25.40;19.83;;;12.90;95.80;;;;;;5034540;28;20777;-67
2024/03/08 11:48:56;;;;;;;21.27;18.70;;;12.90;94.80;;;;;;5036044;28;20935;-67
2024/03/08 11:51:23;;;;;;;29.10;19.97;;;12.90;94.90;;;;;;5035430;28;20484;-67
2024/03/08 11:53:50;;;;;;;20.90;18.57;;;13.00;95.60;;;;;;5035338;28;20432;-67
2024/03/08 11:56:16;;;;;;;21.70;18.93;;;13.00;94.40;;;;;;5035675;28;20478;-68
2024/03/08 11:58:42;;;;;;;26.63;20.70;;;13.10;95.40;;;;;;5019101;28;20433;-67
2024/03/08 12:01:12;;;;;;;25.17;21.10;;;13.10;95.60;;;;;;5035637;28;20478;-67
2024/03/08 12:03:43;;;;;;;23.13;20.63;;;13.00;94.20;;;;;;5035332;28;20211;-68
2024/03/08 12:06:10;;;;;;;26.57;19.77;;;13.00;95.50;;;;;;5035952;28;20425;-68
2024/03/08 12:08:36;;;;;;;25.83;21.80;;;13.10;94.60;;;;;;5034906;28;20433;-68
2024/03/08 12:11:04;;;;;;;21.73;19.37;;;13.10;95.70;;;;;;5035247;28;20936;-68
2024/03/08 12:13:34;;;;;;;25.23;19.90;;;13.20;95.70;;;;;;5035149;28;20428;-68
2024/03/08 12:16:06;;;;;;;23.57;20.13;;;13.30;96.20;;;;;;5035898;28;20479;-68
2024/03/08 12:18:37;;;;;;;22.90;19.40;;;13.30;95.50;;;;;;5034564;28;20426;-68
2024/03/08 12:21:10;;;;;;;22.53;18.17;;;13.40;94.30;;;;;;5035633;28;20823;-68
2024/03/08 12:23:37;;;;;;;21.73;17.40;;;13.40;93.50;;;;;;5034386;28;20988;-68
2024/03/08 12:26:16;;;;;;;13.40;11.43;;;13.30;94.40;;;;;;5033554;28;20433;-68
2024/03/08 12:28:45;;;;;;;16.27;9.60;;;13.30;91.60;;;;;;5035578;28;20561;-68
2024/03/08 12:31:22;;;;;;;9.30;7.57;;;13.10;87.00;;;;;;5034597;28;20537;-68
2024/03/08 12:33:47;;;;;;;11.50;8.93;;;12.80;84.70;;;;;;5034421;28;20428;-68
2024/03/08 12:36:15;;;;;;;10.40;8.47;;;12.60;85.20;;;;;;5035364;28;21117;-68
2024/03/08 12:38:47;;;;;;;9.30;8.00;;;12.40;85.00;;;;;;5035450;28;20174;-68
2024/03/08 12:41:14;;;;;;;10.67;8.87;;;12.50;85.30;;;;;;5034550;28;20517;-68